createdAt,value
2023-11-16T00:02:09.781Z,28
2023-11-16T00:07:10.410Z,28
2023-11-16T00:12:11.032Z,28
2023-11-16T00:17:11.676Z,28
2023-11-16T00:22:12.274Z,28.1
2023-11-16T00:27:12.888Z,28
2023-11-16T00:32:13.568Z,28
2023-11-16T00:37:14.150Z,28
2023-11-16T00:42:14.720Z,28
2023-11-16T00:47:15.358Z,28
2023-11-16T00:52:15.939Z,27.9
2023-11-16T00:57:16.554Z,27.9
2023-11-16T01:02:17.248Z,28
2023-11-16T01:07:17.914Z,28
2023-11-16T01:12:18.567Z,27.9
2023-11-16T01:17:19.208Z,27.9
2023-11-16T01:22:19.823Z,27.9
2023-11-16T02:50:18.933Z,28
2023-11-16T03:30:23.605Z,28
2023-11-16T03:50:26.079Z,27.8
2023-11-16T04:20:29.611Z,27.9
2023-11-16T04:50:33.097Z,27.9
2023-11-16T05:50:44.066Z,27.8
2023-11-16T06:40:50.337Z,27.7
2023-11-16T07:10:53.769Z,27.6
2023-11-16T07:40:57.214Z,27.8
2023-11-16T08:03:53.013Z,27.8
2023-11-16T08:08:53.653Z,27.8
2023-11-16T08:13:54.281Z,27.7
2023-11-16T08:18:54.912Z,27.8
2023-11-16T08:23:55.602Z,27.8
2023-11-16T08:28:56.268Z,27.7
2023-11-16T08:33:56.884Z,27.8
2023-11-16T08:38:57.469Z,27.7
2023-11-16T08:43:58.099Z,27.8
2023-11-16T08:48:58.724Z,27.8
2023-11-16T08:53:59.310Z,27.8
2023-11-16T08:58:59.884Z,27.8
2023-11-16T09:04:00.593Z,27.8
2023-11-16T09:09:01.282Z,27.7
2023-11-16T09:14:01.915Z,27.7
2023-11-16T09:19:02.680Z,27.7
2023-11-16T09:24:03.363Z,27.7
2023-11-16T09:29:07.555Z,27.7
2023-11-16T09:34:08.986Z,27.6
2023-11-16T09:39:09.586Z,27.7
2023-11-16T09:44:10.203Z,27.8
2023-11-16T09:49:10.806Z,27.6
2023-11-16T09:54:11.390Z,27.6
2023-11-16T09:59:11.976Z,27.7
2023-11-16T10:04:12.705Z,27.7
2023-11-16T10:09:13.364Z,27.8
2023-11-16T10:14:13.946Z,27.8
2023-11-16T10:19:14.518Z,27.7
2023-11-16T12:42:18.456Z,27.8
2023-11-16T13:07:21.358Z,27.7
2023-11-16T14:47:36.474Z,27.7
2023-11-16T14:55:29.612Z,27.6
2023-11-16T15:00:30.361Z,27.6
2023-11-16T15:05:34.695Z,27.7
2023-11-16T15:10:39.063Z,27.6
2023-11-16T15:15:39.729Z,27.6
2023-11-16T15:20:40.386Z,27.6
2023-11-16T15:25:40.974Z,27.7
2023-11-16T15:30:41.574Z,27.6
2023-11-16T15:35:42.215Z,27.7
2023-11-16T15:40:42.850Z,27.7
2023-11-16T15:45:43.500Z,27.6
2023-11-16T15:50:44.128Z,27.7
2023-11-16T15:55:44.723Z,27.6
2023-11-16T16:00:45.383Z,27.6
2023-11-16T16:05:45.990Z,27.6
2023-11-16T16:10:46.602Z,27.6
2023-11-16T16:15:47.216Z,27.5
2023-11-16T16:20:47.935Z,27.6
2023-11-16T16:25:48.547Z,27.5
2023-11-16T16:30:49.192Z,27.6
2023-11-16T16:35:49.792Z,27.6
2023-11-16T16:40:50.426Z,27.5
2023-11-16T16:45:51.083Z,27.6
2023-11-16T16:50:51.700Z,27.4
2023-11-16T16:55:52.314Z,27.5
2023-11-16T17:00:52.926Z,27.6
2023-11-16T17:05:53.630Z,27.6
2023-11-16T17:10:54.295Z,27.5
2023-11-16T17:18:39.734Z,27.6
2023-11-16T17:23:40.363Z,27.5
2023-11-16T17:28:40.970Z,27.6
2023-11-16T17:33:41.575Z,27.6
2023-11-16T17:38:42.301Z,27.5
2023-11-16T17:43:42.925Z,27.5
2023-11-16T17:48:43.504Z,27.5
2023-11-16T17:53:44.097Z,27.5
2023-11-16T17:58:44.847Z,27.5
2023-11-16T18:03:45.608Z,27.5
2023-11-16T18:08:46.232Z,27.6
2023-11-16T18:13:46.843Z,27.6
2023-11-16T18:18:47.461Z,27.6
2023-11-16T18:23:48.094Z,27.6
2023-11-16T18:28:48.680Z,27.6
2023-11-16T18:33:49.314Z,27.6
2023-11-16T18:38:49.882Z,27.6
2023-11-16T18:43:50.486Z,27.6
2023-11-16T18:48:51.095Z,27.6
2023-11-16T18:53:51.710Z,27.6
2023-11-16T18:58:52.276Z,27.6
2023-11-16T19:03:53.035Z,27.6
2023-11-16T19:08:53.708Z,27.6
2023-11-16T19:13:54.317Z,27.6
2023-11-16T19:18:54.965Z,27.6
2023-11-16T19:23:55.584Z,27.6
2023-11-16T19:28:56.178Z,27.6
2023-11-16T19:33:56.865Z,27.6
2023-11-16T19:41:49.849Z,27.5
2023-11-16T19:46:50.461Z,27.6
2023-11-16T19:51:51.148Z,27.6
2023-11-16T19:56:51.910Z,27.5
2023-11-16T20:01:52.581Z,27.6
2023-11-16T20:06:53.360Z,27.5
2023-11-16T20:11:53.942Z,27.6
2023-11-16T20:16:54.532Z,27.6
2023-11-16T20:21:55.137Z,27.5
2023-11-16T20:26:55.911Z,27.6
2023-11-16T20:31:56.492Z,27.6
2023-11-16T20:36:57.092Z,27.5
2023-11-16T20:41:57.714Z,27.5
2023-11-16T20:46:58.331Z,27.5
2023-11-16T20:51:58.979Z,27.5
2023-11-16T20:56:59.561Z,27.5
2023-11-16T21:02:00.214Z,27.6
2023-11-16T21:07:00.835Z,27.6
2023-11-16T21:12:01.422Z,27.5
2023-11-16T21:17:02.153Z,27.5
2023-11-16T21:22:02.867Z,27.6
2023-11-16T21:27:03.461Z,27.5
2023-11-16T21:32:04.082Z,27.6
2023-11-16T21:37:04.740Z,27.6
2023-11-16T21:42:05.422Z,27.5
2023-11-16T21:47:05.996Z,27.6
2023-11-16T21:52:06.676Z,27.6
2023-11-16T21:57:07.373Z,27.5
2023-11-16T22:02:08.011Z,27.6
2023-11-16T22:07:08.657Z,27.6
2023-11-16T22:12:09.243Z,27.6
2023-11-16T22:17:09.838Z,27.5
2023-11-16T22:22:10.482Z,27.6
2023-11-16T22:27:11.087Z,27.5
2023-11-16T22:32:11.702Z,27.6
2023-11-16T22:37:12.317Z,27.6
2023-11-16T22:42:12.959Z,27.6
2023-11-16T22:47:13.652Z,27.6
2023-11-16T22:52:14.361Z,27.5
2023-11-16T22:57:14.971Z,27.6
2023-11-16T23:02:15.561Z,27.5
2023-11-16T23:07:16.151Z,27.6
2023-11-16T23:12:16.812Z,27.5
2023-11-16T23:17:17.449Z,27.5
2023-11-16T23:22:18.105Z,27.5
2023-11-16T23:27:18.832Z,27.5
2023-11-16T23:32:19.464Z,27.4
2023-11-16T23:37:20.084Z,27.4
2023-11-16T23:42:20.688Z,27.5
2023-11-16T23:47:21.394Z,27.4
2023-11-16T23:52:22.097Z,27.5
2023-11-16T23:57:22.662Z,27.6
